Time;durP1;ratioP1;P1;durP2;ratioP2;P2;SDS_P1;SDS_P2;PMS_P1;PMS_P2;Temp;Humidity;BMP_temperature;BMP_pressure;BME280_temperature;BME280_humidity;BME280_pressure;Samples;Min_cycle;Max_cycle;Signal;HPM_P1;HPM_P2
2022/08/27 00:00:36;;;;;;;22.27;17.33;;;;;;;24.28;27.74;100581.14;458561;115;922538;-76
2022/08/27 00:01:39;;;;;;;22.19;16.22;;;;;;;24.28;27.87;100585.89;458623;113;930530;-76
2022/08/27 00:02:44;;;;;;;22.02;15.74;;;;;;;24.28;27.96;100586.72;470384;112;922841;-76
2022/08/27 00:03:47;;;;;;;16.15;14.59;;;;;;;24.27;28.09;100587.02;470799;112;923229;-76
2022/08/27 00:04:50;;;;;;;16.64;14.82;;;;;;;24.26;28.21;100588.97;469789;112;922541;-76
2022/08/27 00:05:54;;;;;;;20.38;15.66;;;;;;;24.26;28.26;100585.38;466874;111;922860;-77
2022/08/27 00:06:58;;;;;;;19.02;13.98;;;;;;;24.24;28.28;100580.11;466752;113;923045;-76
2022/08/27 00:08:03;;;;;;;19.01;13.94;;;;;;;24.23;28.31;100583.19;466811;113;922590;-76
2022/08/27 00:09:06;;;;;;;24.64;14.42;;;;;;;24.21;28.31;100585.45;466739;113;923150;-76
2022/08/27 00:10:13;;;;;;;15.76;13.11;;;;;;;24.19;28.33;100588.56;466793;113;922509;-76
2022/08/27 00:11:18;;;;;;;19.22;13.89;;;;;;;24.18;28.40;100588.86;466667;111;922612;-76
2022/08/27 00:12:21;;;;;;;14.51;12.88;;;;;;;24.17;28.50;100578.80;465742;112;923032;-78
2022/08/27 00:13:25;;;;;;;14.61;13.21;;;;;;;24.15;28.60;100576.31;465057;114;930321;-76
2022/08/27 00:14:28;;;;;;;15.82;14.08;;;;;;;24.15;28.68;100584.67;465035;114;922894;-76
2022/08/27 00:15:32;;;;;;;15.92;14.06;;;;;;;24.14;28.66;100580.26;463951;114;930554;-76
2022/08/27 00:16:35;;;;;;;15.02;13.48;;;;;;;24.14;28.66;100580.26;462963;114;922563;-76
2022/08/27 00:17:39;;;;;;;17.23;14.19;;;;;;;24.14;28.59;100579.43;462950;114;922787;-76
2022/08/27 00:18:44;;;;;;;21.06;14.32;;;;;;;24.13;28.45;100575.81;463022;114;922631;-76
2022/08/27 00:19:49;;;;;;;16.97;15.04;;;;;;;24.13;28.45;100575.81;462730;114;923167;-76
2022/08/27 00:20:52;;;;;;;17.44;14.14;;;;;;;24.13;28.31;100584.17;463028;114;922553;-76
2022/08/27 00:21:55;;;;;;;17.35;14.40;;;;;;;24.13;28.18;100580.55;463026;114;923030;-77
2022/08/27 00:22:59;;;;;;;20.90;14.21;;;;;;;24.12;28.08;100576.94;463041;114;922601;-77
2022/08/27 00:24:03;;;;;;;19.79;13.49;;;;;;;24.10;28.11;100571.66;462938;114;923343;-76
2022/08/27 00:25:06;;;;;;;22.87;14.78;;;;;;;24.10;28.11;100571.66;462887;114;930626;-77
2022/08/27 00:26:10;;;;;;;21.37;14.67;;;;;;;24.10;27.86;100568.87;462935;114;930601;-77
2022/08/27 00:27:14;;;;;;;17.07;14.13;;;;;;;24.10;27.87;100571.66;462992;114;922616;-76
2022/08/27 00:28:17;;;;;;;19.96;13.96;;;;;;;24.11;27.81;100578.06;463128;114;922364;-76
2022/08/27 00:29:21;;;;;;;17.57;14.66;;;;;;;24.11;27.74;100575.28;463087;114;922812;-76
2022/08/27 00:30:24;;;;;;;20.67;14.14;;;;;;;24.11;27.71;100575.28;466118;113;922438;-76
2022/08/27 00:31:28;;;;;;;16.54;14.95;;;;;;;24.11;27.66;100572.50;465067;113;927285;-77
2022/08/27 00:32:31;;;;;;;19.43;15.07;;;;;;;24.10;27.96;100573.63;465209;114;922701;-77
2022/08/27 00:33:35;;;;;;;19.01;14.63;;;;;;;24.10;27.96;100573.63;464859;114;923238;-77
2022/08/27 00:34:38;;;;;;;15.06;13.61;;;;;;;24.10;27.53;100582.81;457065;116;922584;-77
2022/08/27 00:35:42;;;;;;;16.32;14.73;;;;;;;24.10;27.55;100581.98;456926;116;930359;-78
2022/08/27 00:36:45;;;;;;;17.28;14.31;;;;;;;24.10;27.54;100579.19;456968;116;923408;-77
2022/08/27 00:37:49;;;;;;;18.04;13.80;;;;;;;24.10;27.53;100579.19;456865;116;922617;-77
2022/08/27 00:38:52;;;;;;;18.54;14.83;;;;;;;24.10;27.45;100571.66;456965;116;923990;-77
2022/08/27 00:39:56;;;;;;;18.09;14.51;;;;;;;24.10;27.41;100576.41;456936;116;922947;-77
2022/08/27 00:41:00;;;;;;;15.86;14.31;;;;;;;24.10;27.40;100576.41;456913;116;923430;-77
2022/08/27 00:42:05;;;;;;;18.64;15.16;;;;;;;24.10;27.37;100581.98;456852;116;930331;-77
2022/08/27 00:43:08;;;;;;;19.21;15.09;;;;;;;24.10;27.35;100573.63;456805;116;922547;-77
2022/08/27 00:44:12;;;;;;;17.34;15.70;;;;;;;24.08;27.34;100573.13;456843;116;930598;-77
2022/08/27 00:45:19;;;;;;;16.92;14.16;;;;;;;24.07;27.33;100563.10;456911;116;930560;-78
2022/08/27 00:46:46;;;;;;;24.78;14.46;;;;;;;24.07;27.32;100572.29;456818;116;922766;-77
2022/08/27 00:47:55;;;;;;;20.40;14.61;;;;;;;24.05;27.33;100573.70;456796;116;922631;-77
2022/08/27 00:49:05;;;;;;;20.36;13.67;;;;;;;24.03;27.32;100573.20;456786;116;922591;-77
2022/08/27 00:50:15;;;;;;;15.93;14.32;;;;;;;24.01;27.34;100569.89;456274;116;922615;-77
2022/08/27 00:51:20;;;;;;;17.33;13.88;;;;;;;23.99;27.35;100570.19;456773;116;930350;-77
2022/08/27 00:52:27;;;;;;;17.00;14.35;;;;;;;23.97;27.36;100575.25;456787;116;922657;-77
2022/08/27 00:53:33;;;;;;;15.26;12.91;;;;;;;23.96;27.35;100572.77;456540;116;922549;-77
2022/08/27 00:54:36;;;;;;;22.74;14.01;;;;;;;23.96;27.35;100569.98;456776;116;922694;-77
2022/08/27 00:55:51;;;;;;;16.53;12.66;;;;;;;23.94;27.39;100577.80;456988;116;922667;-76
2022/08/27 00:56:57;;;;;;;16.53;13.41;;;;;;;23.93;27.33;100567.78;448861;118;923038;-76
2022/08/27 00:58:20;;;;;;;20.70;11.86;;;;;;;23.91;27.33;100568.11;449575;116;922684;-77
2022/08/27 00:59:28;;;;;;;14.57;12.63;;;;;;;23.90;27.34;100571.19;455947;116;922647;-77
2022/08/27 01:00:31;;;;;;;15.90;12.78;;;;;;;23.88;27.37;100567.87;456827;116;923076;-77
2022/08/27 01:02:17;;;;;;;16.06;12.43;;;;;;;23.86;27.38;100567.36;462703;114;922575;-77
2022/08/27 01:02:40;;;;;;;17.03;13.22;;;;;;;23.84;27.40;100566.83;460371;114;922848;-76
2022/08/27 01:03:47;;;;;;;13.14;11.74;;;;;;;23.82;27.45;100567.13;462863;114;922605;-76
2022/08/27 01:04:57;;;;;;;20.94;13.48;;;;;;;23.81;27.47;100565.50;462719;114;922772;-76
2022/08/27 01:06:04;;;;;;;16.94;12.89;;;;;;;23.80;27.47;100563.84;462639;114;922657;-76
2022/08/27 01:07:09;;;;;;;18.13;13.00;;;;;;;23.78;27.48;100562.47;462647;114;922634;-77
2022/08/27 01:08:18;;;;;;;16.46;11.96;;;;;;;23.77;27.49;100560.81;462687;114;922862;-76
2022/08/27 01:09:22;;;;;;;16.67;12.33;;;;;;;23.75;27.54;100558.34;462644;114;930438;-76
2022/08/27 01:10:28;;;;;;;14.23;12.65;;;;;;;23.74;27.53;100558.64;462714;114;922503;-76
2022/08/27 01:11:32;;;;;;;22.87;12.64;;;;;;;23.73;27.56;100557.81;462629;114;923086;-76
2022/08/27 01:12:36;;;;;;;16.94;12.41;;;;;;;23.73;27.57;100562.55;463398;114;922563;-76
2022/08/27 01:13:40;;;;;;;16.35;12.44;;;;;;;23.72;27.60;100558.11;464844;114;922552;-77
2022/08/27 01:14:46;;;;;;;20.16;13.26;;;;;;;23.71;27.63;100559.27;462025;114;922954;-77
2022/08/27 01:15:51;;;;;;;16.78;13.03;;;;;;;23.69;27.58;100568.73;465836;114;922645;-77
2022/08/27 01:16:58;;;;;;;16.14;14.23;;;;;;;23.69;27.57;100562.34;465928;114;923317;-78
2022/08/27 01:18:04;;;;;;;19.25;14.58;;;;;;;23.68;27.57;100569.03;465957;114;922539;-77
2022/08/27 01:19:10;;;;;;;21.69;14.28;;;;;;;23.67;27.52;100564.59;465922;114;922952;-77
2022/08/27 01:20:21;;;;;;;19.16;14.97;;;;;;;23.67;27.53;100561.80;463519;114;922592;-77
2022/08/27 01:21:27;;;;;;;21.08;15.28;;;;;;;23.65;27.52;100567.66;466225;114;923011;-76
2022/08/27 01:22:43;;;;;;;19.23;15.39;;;;;;;23.65;27.50;100564.08;465837;114;922819;-77
2022/08/27 01:23:56;;;;;;;21.06;14.75;;;;;;;23.64;27.55;100567.99;465861;114;922588;-77
2022/08/27 01:25:02;;;;;;;19.06;15.57;;;;;;;23.62;27.53;100559.10;465545;114;922607;-78
2022/08/27 01:26:08;;;;;;;23.81;15.51;;;;;;;23.59;27.54;100560.55;465781;114;922561;-77
2022/08/27 01:27:15;;;;;;;21.94;14.98;;;;;;;23.58;27.56;100566.41;465817;114;922532;-77
2022/08/27 01:28:20;;;;;;;18.06;15.55;;;;;;;23.56;27.56;100566.70;465161;114;923086;-78
2022/08/27 01:29:26;;;;;;;24.18;15.98;;;;;;;23.55;27.59;100567.83;465400;114;922958;-77
2022/08/27 01:30:30;;;;;;;23.99;15.94;;;;;;;23.54;27.60;100568.95;457836;116;922513;-77
2022/08/27 01:31:33;;;;;;;24.05;16.26;;;;;;;23.53;27.64;100572.89;463046;114;922641;-76
2022/08/27 01:32:37;;;;;;;22.46;16.34;;;;;;;23.52;27.64;100559.27;451493;117;930543;-77
2022/08/27 01:33:42;;;;;;;20.62;15.66;;;;;;;23.51;27.68;100563.17;445979;118;922706;-76
2022/08/27 01:34:46;;;;;;;17.44;14.62;;;;;;;23.51;27.64;100565.95;448671;118;922668;-77
2022/08/27 01:35:51;;;;;;;22.42;16.56;;;;;;;23.50;27.67;100570.69;448828;118;922656;-77
2022/08/27 01:36:54;;;;;;;19.93;15.01;;;;;;;23.50;27.67;100565.13;448748;118;922616;-77
2022/08/27 01:37:59;;;;;;;20.89;15.07;;;;;;;23.49;27.67;100569.03;448722;118;923188;-77
2022/08/27 01:39:03;;;;;;;17.21;15.06;;;;;;;23.50;27.68;100567.07;448871;118;922874;-76
2022/08/27 01:40:09;;;;;;;22.28;15.34;;;;;;;23.50;27.66;100569.86;448670;118;930522;-76
2022/08/27 01:41:15;;;;;;;18.90;15.46;;;;;;;23.49;27.64;100577.38;448575;118;922594;-77
2022/08/27 01:42:23;;;;;;;20.77;15.45;;;;;;;23.50;27.62;100575.42;448718;118;922652;-76
2022/08/27 01:43:27;;;;;;;23.99;15.75;;;;;;;23.50;27.65;100575.42;448764;118;923052;-77
2022/08/27 01:44:46;;;;;;;21.06;15.19;;;;;;;23.50;27.65;100579.04;448859;118;922664;-76
2022/08/27 01:45:51;;;;;;;18.30;14.82;;;;;;;23.50;27.61;100587.39;448606;118;922628;-77
2022/08/27 01:46:54;;;;;;;16.76;13.16;;;;;;;23.50;27.64;100581.82;448801;118;922712;-77
2022/08/27 01:47:58;;;;;;;20.97;12.67;;;;;;;23.50;27.60;100584.60;448864;118;922536;-76
2022/08/27 01:49:02;;;;;;;16.31;11.95;;;;;;;23.49;27.59;100585.73;448881;118;923155;-76
2022/08/27 01:50:14;;;;;;;16.56;12.29;;;;;;;23.49;27.60;100585.73;449026;118;922590;-76
2022/08/27 01:51:18;;;;;;;14.03;10.65;;;;;;;23.49;27.58;100584.89;448782;118;923107;-77
2022/08/27 01:52:24;;;;;;;15.32;10.03;;;;;;;23.49;27.59;100585.73;448913;118;922581;-76
2022/08/27 01:53:27;;;;;;;12.59;9.97;;;;;;;23.49;27.53;100582.94;448723;118;930431;-76
2022/08/27 01:54:32;;;;;;;14.21;9.71;;;;;;;23.48;27.50;100584.09;448972;118;923399;-76
2022/08/27 01:55:36;;;;;;;12.57;8.78;;;;;;;23.49;27.49;100584.89;448838;118;922581;-76
2022/08/27 01:56:39;;;;;;;12.48;8.85;;;;;;;23.48;27.50;100591.61;448801;118;928072;-76
2022/08/27 01:57:43;;;;;;;12.51;8.71;;;;;;;23.48;27.50;100589.66;453514;116;922573;-77
2022/08/27 01:58:46;;;;;;;8.93;7.48;;;;;;;23.48;27.53;100588.83;456667;116;922620;-77
2022/08/27 01:59:55;;;;;;;10.58;6.79;;;;;;;23.47;27.58;100590.78;456418;116;922974;-77
2022/08/27 02:01:02;;;;;;;10.05;7.13;;;;;;;23.47;27.54;100584.39;456567;116;922718;-78
2022/08/27 02:02:06;;;;;;;9.67;6.86;;;;;;;23.46;27.53;100591.91;457931;115;922952;-78
2022/08/27 02:03:10;;;;;;;7.64;6.53;;;;;;;23.45;27.57;100590.22;460927;115;922736;-77
2022/08/27 02:04:14;;;;;;;10.06;6.24;;;;;;;23.45;27.60;100590.22;460931;115;930929;-77
2022/08/27 02:05:17;;;;;;;7.59;6.44;;;;;;;23.45;27.59;100584.64;461099;115;922534;-77
2022/08/27 02:06:22;;;;;;;7.97;5.56;;;;;;;23.46;27.62;100594.69;460920;115;922553;-77
2022/08/27 02:07:25;;;;;;;9.98;5.97;;;;;;;23.46;27.62;100594.69;461069;115;922550;-77
2022/08/27 02:08:28;;;;;;;9.08;5.79;;;;;;;23.46;27.65;100589.13;461127;115;922493;-77
2022/08/27 02:09:32;;;;;;;8.27;5.51;;;;;;;23.46;27.65;100591.91;461145;115;922886;-76
2022/08/27 02:10:38;;;;;;;8.98;5.55;;;;;;;23.46;27.65;100586.34;461028;115;922854;-77
2022/08/27 02:11:41;;;;;;;10.09;5.83;;;;;;;23.46;27.72;100585.51;460848;115;922549;-77
2022/08/27 02:12:46;;;;;;;6.52;5.30;;;;;;;23.45;27.77;100589.38;460772;115;922610;-76
2022/08/27 02:13:49;;;;;;;9.14;5.44;;;;;;;23.44;27.87;100582.16;460496;115;922579;-76
2022/08/27 02:14:52;;;;;;;6.22;5.45;;;;;;;23.45;27.84;100589.38;460099;115;922508;-76
2022/08/27 02:15:56;;;;;;;9.14;5.44;;;;;;;23.44;27.86;100588.55;459108;113;922641;-76
2022/08/27 02:16:59;;;;;;;5.76;4.72;;;;;;;23.45;27.90;100598.56;459016;115;922543;-77
2022/08/27 02:18:04;;;;;;;6.87;4.94;;;;;;;23.46;27.93;100596.64;459045;115;922898;-76
2022/08/27 02:19:08;;;;;;;9.51;5.08;;;;;;;23.45;27.91;100595.78;450303;117;923283;-77
2022/08/27 02:20:15;;;;;;;6.89;4.96;;;;;;;23.46;27.90;100585.51;451119;115;922654;-77
2022/08/27 02:21:18;;;;;;;6.42;4.44;;;;;;;23.46;27.88;100591.91;458817;113;922871;-76
2022/08/27 02:22:23;;;;;;;8.39;4.49;;;;;;;23.47;27.82;100593.56;459020;115;922630;-77
2022/08/27 02:23:26;;;;;;;7.00;5.03;;;;;;;23.48;27.82;100594.40;458954;115;922638;-77
2022/08/27 02:24:29;;;;;;;5.79;4.28;;;;;;;23.48;27.82;100580.48;459030;115;922838;-77
2022/08/27 02:25:32;;;;;;;5.19;3.94;;;;;;;23.48;27.77;100586.88;459050;115;923159;-77
2022/08/27 02:26:36;;;;;;;6.18;5.40;;;;;;;23.49;27.73;100594.08;458972;113;922662;-76
2022/08/27 02:27:42;;;;;;;7.01;4.72;;;;;;;23.48;27.72;100589.66;458961;115;922566;-77
2022/08/27 02:28:46;;;;;;;10.62;5.54;;;;;;;23.48;27.67;100592.45;458791;115;923140;-77
2022/08/27 02:29:50;;;;;;;5.87;5.27;;;;;;;23.49;27.67;100591.29;458357;114;922600;-78
2022/08/27 02:30:54;;;;;;;14.83;5.53;;;;;;;23.49;27.64;100594.08;448749;115;922551;-77
2022/08/27 02:31:57;;;;;;;9.08;4.86;;;;;;;23.49;27.61;100594.08;459007;115;922906;-76
2022/08/27 02:33:03;;;;;;;11.39;5.20;;;;;;;23.50;27.60;100592.13;453061;117;922719;-76
2022/08/27 02:34:06;;;;;;;9.18;5.01;;;;;;;23.50;27.62;100594.91;452817;115;922567;-77
2022/08/27 02:35:10;;;;;;;6.09;5.09;;;;;;;23.49;27.66;100598.81;453010;117;922504;-76
2022/08/27 02:36:13;;;;;;;7.86;5.75;;;;;;;23.49;27.64;100590.46;452981;115;922580;-75
2022/08/27 02:37:17;;;;;;;8.56;4.73;;;;;;;23.49;27.60;100594.08;453012;117;922990;-77
2022/08/27 02:38:20;;;;;;;7.67;4.98;;;;;;;23.50;27.64;100597.69;452994;117;930617;-77
2022/08/27 02:39:23;;;;;;;6.05;5.44;;;;;;;23.49;27.67;100596.86;453120;117;922641;-77
2022/08/27 02:40:28;;;;;;;8.65;5.51;;;;;;;23.48;27.76;100595.23;452997;117;922640;-77
2022/08/27 02:41:31;;;;;;;8.46;5.18;;;;;;;23.47;27.69;100596.34;458836;113;930544;-76
2022/08/27 02:42:34;;;;;;;6.41;5.11;;;;;;;23.47;27.73;100596.34;459062;115;922600;-76
2022/08/27 02:43:38;;;;;;;8.82;5.76;;;;;;;23.47;27.70;100592.73;459093;115;922594;-76
2022/08/27 02:44:42;;;;;;;7.31;5.18;;;;;;;23.47;27.74;100593.56;459071;115;922471;-77
2022/08/27 02:45:45;;;;;;;7.62;4.86;;;;;;;23.47;27.74;100599.13;459042;115;922585;-76
2022/08/27 02:46:48;;;;;;;8.89;5.58;;;;;;;23.46;27.78;100603.04;458987;113;922565;-76
2022/08/27 02:47:53;;;;;;;10.71;6.97;;;;;;;23.46;27.74;100596.64;458572;115;922616;-76
2022/08/27 02:48:57;;;;;;;9.69;6.29;;;;;;;23.45;27.78;100600.52;459021;115;922545;-77
2022/08/27 02:50:00;;;;;;;9.25;5.80;;;;;;;23.44;27.72;100602.47;459046;115;922592;-76
2022/08/27 02:51:04;;;;;;;10.67;5.71;;;;;;;23.45;27.71;100600.52;458939;113;922543;-76
2022/08/27 02:52:08;;;;;;;7.72;5.66;;;;;;;23.44;27.70;100598.85;458946;115;922548;-77
2022/08/27 02:53:11;;;;;;;10.28;5.74;;;;;;;23.44;27.74;100601.63;458924;115;922841;-76
2022/08/27 02:54:14;;;;;;;9.07;6.43;;;;;;;23.43;27.73;100598.02;458965;115;930629;-76
2022/08/27 02:55:18;;;;;;;8.84;5.61;;;;;;;23.43;27.75;100600.00;453141;117;922617;-76
2022/08/27 02:56:22;;;;;;;8.50;5.32;;;;;;;23.42;27.75;100601.95;452976;117;922906;-77
2022/08/27 02:57:26;;;;;;;10.32;5.37;;;;;;;23.42;27.70;100601.95;452966;117;922586;-76
2022/08/27 02:58:29;;;;;;;9.06;5.73;;;;;;;23.40;27.70;100604.20;452942;117;931022;-77
2022/08/27 02:59:32;;;;;;;9.79;5.42;;;;;;;23.39;27.71;100602.54;453049;117;922602;-77
2022/08/27 03:00:36;;;;;;;9.31;5.22;;;;;;;23.39;27.69;100594.19;452989;117;922605;-76
2022/08/27 03:01:39;;;;;;;9.87;6.14;;;;;;;23.37;27.69;100592.86;452959;115;922537;-76
2022/08/27 03:02:43;;;;;;;15.60;5.15;;;;;;;23.37;27.73;100593.69;453942;117;922900;-77
2022/08/27 03:03:47;;;;;;;7.91;5.76;;;;;;;23.36;27.65;100593.97;449644;117;922526;-76
2022/08/27 03:04:50;;;;;;;6.51;4.90;;;;;;;23.36;27.65;100596.76;449711;118;922538;-76
2022/08/27 03:05:54;;;;;;;6.61;4.81;;;;;;;23.35;27.66;100595.92;462359;114;922590;-77
2022/08/27 03:06:58;;;;;;;8.06;5.13;;;;;;;23.35;27.71;100601.48;454441;116;922641;-76
2022/08/27 03:08:02;;;;;;;6.97;5.54;;;;;;;23.35;27.68;100600.66;462354;114;930559;-77
2022/08/27 03:09:05;;;;;;;9.17;5.64;;;;;;;23.34;27.64;100593.44;462337;114;930485;-76
2022/08/27 03:10:10;;;;;;;8.39;5.14;;;;;;;23.33;27.71;100595.39;462430;114;922550;-76
2022/08/27 03:11:14;;;;;;;8.04;5.40;;;;;;;23.34;27.67;100599.00;462263;114;930523;-78
2022/08/27 03:12:17;;;;;;;7.62;5.74;;;;;;;23.33;27.68;100597.34;462507;114;922574;-77
2022/08/27 03:13:20;;;;;;;6.22;5.49;;;;;;;23.33;27.65;100598.17;462544;114;922947;-76
2022/08/27 03:14:24;;;;;;;7.55;6.03;;;;;;;23.33;27.68;100598.17;462425;114;922927;-78
2022/08/27 03:15:27;;;;;;;8.24;5.32;;;;;;;23.32;27.62;100599.32;460475;114;930549;-77
2022/08/27 03:16:33;;;;;;;6.85;5.76;;;;;;;23.32;27.64;100604.88;457848;116;922617;-77
2022/08/27 03:18:58;;;;;;;12.11;5.98;;;;;;;23.32;27.64;100602.10;457687;116;922652;-77
2022/08/27 03:20:03;;;;;;;9.37;5.77;;;;;;;23.30;27.66;100604.34;457868;116;922568;-77
2022/08/27 03:21:07;;;;;;;7.48;5.95;;;;;;;23.30;27.67;100598.78;457630;114;922802;-77
2022/08/27 03:22:10;;;;;;;8.25;6.16;;;;;;;23.29;27.69;100592.39;457737;116;930520;-78
2022/08/27 03:23:14;;;;;;;6.89;5.44;;;;;;;23.30;27.73;100609.91;457797;116;922721;-76
2022/08/27 03:24:18;;;;;;;8.55;5.83;;;;;;;23.32;27.73;100602.10;457737;116;922617;-77
2022/08/27 03:25:23;;;;;;;7.84;5.27;;;;;;;23.33;27.75;100600.12;457647;116;922592;-77
2022/08/27 03:26:29;;;;;;;10.68;5.86;;;;;;;23.34;27.80;100604.56;457678;116;922718;-77
2022/08/27 03:27:32;;;;;;;6.89;5.41;;;;;;;23.34;27.89;100597.05;457777;116;922540;-77
2022/08/27 03:28:35;;;;;;;7.37;5.74;;;;;;;23.36;27.88;100591.19;457864;116;923128;-77
2022/08/27 03:29:38;;;;;;;8.50;5.69;;;;;;;23.37;27.97;100602.03;457759;116;922523;-77
2022/08/27 03:30:44;;;;;;;8.06;4.78;;;;;;;23.38;27.93;100595.31;449144;117;922625;-77
2022/08/27 03:31:48;;;;;;;6.18;4.99;;;;;;;23.40;27.93;100598.64;458775;115;922560;-76
2022/08/27 03:32:52;;;;;;;8.68;5.36;;;;;;;23.41;27.87;100593.91;453028;117;922541;-76
2022/08/27 03:33:58;;;;;;;8.73;4.83;;;;;;;23.42;27.92;100599.17;454968;115;922927;-76
2022/08/27 03:35:02;;;;;;;7.55;5.21;;;;;;;23.43;27.92;100592.45;461327;115;922669;-76
2022/08/27 03:36:07;;;;;;;7.79;5.01;;;;;;;23.44;27.93;100591.33;461444;115;922594;-76
2022/08/27 03:37:10;;;;;;;6.69;4.64;;;;;;;23.44;27.87;100585.77;461253;115;930534;-75
2022/08/27 03:38:15;;;;;;;5.17;4.64;;;;;;;23.44;27.80;100585.77;461565;115;922901;-76
2022/08/27 03:39:18;;;;;;;6.15;5.05;;;;;;;23.45;27.77;100589.38;461408;115;922831;-75
2022/08/27 03:40:22;;;;;;;7.69;4.76;;;;;;;23.46;27.81;100600.25;461442;115;923108;-76
2022/08/27 03:41:25;;;;;;;12.51;5.31;;;;;;;23.47;27.84;100588.00;461509;115;922606;-77
2022/08/27 03:42:30;;;;;;;6.19;4.48;;;;;;;23.48;27.75;100594.40;458854;115;922810;-76
2022/08/27 03:43:34;;;;;;;6.71;4.59;;;;;;;23.48;27.75;100595.23;461458;115;922567;-76
2022/08/27 03:44:37;;;;;;;6.53;4.81;;;;;;;23.49;27.74;100588.51;461415;115;930537;-78
2022/08/27 03:45:44;;;;;;;5.94;4.66;;;;;;;23.50;27.78;100594.91;461529;115;922980;-77
2022/08/27 03:46:53;;;;;;;5.00;4.52;;;;;;;23.51;27.77;100589.05;461364;115;922515;-77
2022/08/27 03:47:56;;;;;;;5.54;4.80;;;;;;;23.52;27.84;100585.14;461325;115;922913;-77
2022/08/27 03:48:59;;;;;;;6.28;4.37;;;;;;;23.54;27.86;100582.06;461515;115;922758;-78
2022/08/27 03:50:04;;;;;;;5.73;4.36;;;;;;;23.55;27.87;100587.31;458508;115;922620;-77
2022/08/27 03:51:11;;;;;;;9.33;5.53;;;;;;;23.56;27.90;100586.19;453781;115;923115;-77
2022/08/27 03:52:14;;;;;;;6.06;3.71;;;;;;;23.57;27.87;100587.84;453606;117;923196;-77
2022/08/27 03:53:19;;;;;;;6.87;3.74;;;;;;;23.58;27.80;100585.89;453856;117;923042;-79
2022/08/27 03:54:23;;;;;;;6.42;4.48;;;;;;;23.58;27.76;100589.51;453712;117;922762;-77
2022/08/27 03:55:27;;;;;;;4.59;3.29;;;;;;;23.59;27.78;100587.55;453881;117;922566;-77
2022/08/27 03:56:32;;;;;;;5.46;4.17;;;;;;;23.58;27.72;100589.51;453825;115;922955;-77
2022/08/27 03:57:36;;;;;;;7.36;3.23;;;;;;;23.59;27.72;100585.60;453739;117;922628;-77
2022/08/27 03:58:40;;;;;;;6.74;3.32;;;;;;;23.59;27.68;100580.03;453853;117;922548;-77
2022/08/27 03:59:43;;;;;;;5.55;3.45;;;;;;;23.59;27.65;100579.20;453920;117;922651;-78
2022/08/27 04:00:47;;;;;;;5.29;3.37;;;;;;;23.58;27.64;100581.16;453861;117;923175;-77
2022/08/27 04:01:50;;;;;;;10.26;3.49;;;;;;;23.59;27.63;100584.77;453395;115;930571;-77
2022/08/27 04:02:54;;;;;;;4.91;3.74;;;;;;;23.58;27.62;100583.94;452180;117;930530;-76
2022/08/27 04:03:57;;;;;;;5.06;3.21;;;;;;;23.58;27.58;100583.94;452234;117;922621;-77
2022/08/27 04:05:01;;;;;;;8.98;3.23;;;;;;;23.57;27.60;100587.84;452330;117;922515;-76
2022/08/27 04:06:04;;;;;;;6.81;3.17;;;;;;;23.57;27.52;100587.84;452325;115;922862;-76
2022/08/27 04:07:09;;;;;;;5.04;3.54;;;;;;;23.57;27.56;100590.63;452282;117;923048;-76
2022/08/27 04:08:12;;;;;;;4.22;3.58;;;;;;;23.57;27.60;100585.06;452105;117;930438;-76
2022/08/27 04:09:16;;;;;;;10.04;3.34;;;;;;;23.57;27.70;100590.63;452329;117;922959;-76
2022/08/27 04:10:21;;;;;;;5.79;3.13;;;;;;;23.57;27.74;100587.02;452148;117;922573;-77
2022/08/27 04:11:25;;;;;;;6.16;3.33;;;;;;;23.57;27.73;100584.23;452353;115;922664;-77
2022/08/27 04:12:28;;;;;;;6.28;3.25;;;;;;;23.56;27.71;100586.19;452357;117;922577;-77
2022/08/27 04:13:31;;;;;;;6.44;3.02;;;;;;;23.56;27.71;100582.58;452378;117;922513;-77
2022/08/27 04:14:34;;;;;;;4.08;3.18;;;;;;;23.57;27.72;100587.02;452171;117;923078;-78
2022/08/27 04:15:43;;;;;;;6.53;3.77;;;;;;;23.56;27.70;100586.19;453023;117;922920;-76
2022/08/27 04:16:47;;;;;;;5.08;2.96;;;;;;;23.56;27.70;100575.05;453435;117;922586;-76
2022/08/27 04:17:52;;;;;;;3.40;3.02;;;;;;;23.56;27.73;100572.27;453426;117;923071;-76
2022/08/27 04:18:55;;;;;;;7.34;3.29;;;;;;;23.56;27.75;100580.62;453625;117;922531;-77
2022/08/27 04:19:59;;;;;;;5.08;3.51;;;;;;;23.56;27.81;100574.22;453663;117;922544;-77
2022/08/27 04:21:10;;;;;;;4.04;2.98;;;;;;;23.55;27.90;100581.74;450890;117;922528;-77
2022/08/27 04:22:13;;;;;;;6.58;3.44;;;;;;;23.56;27.89;100575.05;453350;117;922548;-76
2022/08/27 04:23:17;;;;;;;5.43;2.68;;;;;;;23.57;27.83;100570.31;453473;117;922581;-77
2022/08/27 04:24:20;;;;;;;4.70;2.74;;;;;;;23.57;27.89;100570.31;453487;117;922577;-76
2022/08/27 04:25:23;;;;;;;4.66;2.87;;;;;;;23.56;27.87;100568.66;453577;117;923145;-76
2022/08/27 04:26:27;;;;;;;6.85;3.12;;;;;;;23.55;27.81;100572.56;453550;117;922958;-77
2022/08/27 04:27:31;;;;;;;5.25;2.68;;;;;;;23.55;27.82;100570.61;453465;117;922624;-76
2022/08/27 04:28:36;;;;;;;5.06;3.01;;;;;;;23.54;27.79;100562.58;453359;117;922628;-76
2022/08/27 04:29:41;;;;;;;7.19;3.06;;;;;;;23.51;27.79;100564.00;453447;117;922968;-76
2022/08/27 04:30:45;;;;;;;5.72;2.62;;;;;;;23.50;27.82;100565.13;453853;117;922514;-77
2022/08/27 04:31:49;;;;;;;5.35;2.91;;;;;;;23.49;27.81;100560.67;444940;119;930526;-76
2022/08/27 04:32:52;;;;;;;7.06;3.26;;;;;;;23.48;27.85;100569.35;445841;119;922803;-76
2022/08/27 04:33:56;;;;;;;7.31;3.90;;;;;;;23.48;27.87;100566.56;439033;120;923083;-77
2022/08/27 04:35:00;;;;;;;5.16;4.08;;;;;;;23.48;27.92;100561.83;438412;120;922629;-76
2022/08/27 04:36:07;;;;;;;8.89;5.66;;;;;;;23.47;27.93;100568.52;437617;119;927341;-77
2022/08/27 04:37:10;;;;;;;7.65;6.26;;;;;;;23.48;28.02;100566.56;437507;121;922591;-76
2022/08/27 04:38:14;;;;;;;9.27;4.90;;;;;;;23.48;28.06;100566.56;437684;121;922887;-77
2022/08/27 04:39:19;;;;;;;8.46;6.27;;;;;;;23.47;28.08;100570.47;437611;121;922866;-76
2022/08/27 04:41:18;;;;;;;7.27;5.52;;;;;;;23.46;28.15;100564.08;437521;121;923063;-77
2022/08/27 04:41:32;;;;;;;8.29;5.74;;;;;;;23.46;28.16;100560.46;435081;119;922782;-77
2022/08/27 04:42:33;;;;;;;6.59;3.83;;;;;;;23.46;28.24;100569.64;440366;120;922558;-77
2022/08/27 04:43:36;;;;;;;4.52;3.77;;;;;;;23.46;28.27;100568.81;446245;119;922620;-78
2022/08/27 04:44:39;;;;;;;6.21;3.53;;;;;;;23.47;28.29;100564.91;437712;121;922992;-77
2022/08/27 04:45:47;;;;;;;5.01;3.46;;;;;;;23.46;28.36;100564.08;437710;121;923162;-77
2022/08/27 04:46:57;;;;;;;11.47;3.11;;;;;;;23.46;28.48;100566.86;445910;117;922733;-77
2022/08/27 04:48:00;;;;;;;5.26;3.06;;;;;;;23.48;28.51;100567.40;436957;121;922633;-76
2022/08/27 04:49:11;;;;;;;4.09;2.59;;;;;;;23.48;28.47;100563.78;437696;121;923128;-77
2022/08/27 04:50:18;;;;;;;3.23;2.16;;;;;;;23.49;28.43;100570.98;438609;121;922980;-77
2022/08/27 04:51:24;;;;;;;5.38;2.59;;;;;;;23.48;28.42;100572.13;437425;121;922845;-77
2022/08/27 04:52:27;;;;;;;4.69;2.57;;;;;;;23.49;28.42;100569.03;438657;121;922525;-77
2022/08/27 04:53:31;;;;;;;3.20;2.34;;;;;;;23.50;28.47;100567.91;438778;121;922510;-77
2022/08/27 04:54:35;;;;;;;3.94;2.56;;;;;;;23.51;28.48;100569.56;438775;121;922914;-78
2022/08/27 04:55:47;;;;;;;2.66;2.01;;;;;;;23.51;28.48;100569.56;438742;121;922708;-77